sensor_id;sensor_type;location;lat;lon;timestamp;pressure;altitude;pressure_sealevel;temperature;humidity
55675;BME280;41562;44.330;23.802;2023-04-09T00:00:19;100742.84;;;8.33;100.00
55675;BME280;41562;44.330;23.802;2023-04-09T00:02:46;100747.28;;;8.27;100.00
55675;BME280;41562;44.330;23.802;2023-04-09T00:05:14;100741.84;;;8.22;100.00
55675;BME280;41562;44.330;23.802;2023-04-09T00:07:41;100744.63;;;8.27;100.00
55675;BME280;41562;44.330;23.802;2023-04-09T00:10:10;100742.50;;;8.29;100.00
55675;BME280;41562;44.330;23.802;2023-04-09T00:12:38;100753.66;;;8.26;100.00
55675;BME280;41562;44.330;23.802;2023-04-09T00:15:05;100751.91;;;8.32;100.00
55675;BME280;41562;44.330;23.802;2023-04-09T00:17:43;100750.34;;;8.36;100.00
55675;BME280;41562;44.330;23.802;2023-04-09T00:20:10;100742.91;;;8.21;100.00
55675;BME280;41562;44.330;23.802;2023-04-09T00:22:38;100750.41;;;8.24;100.00
55675;BME280;41562;44.330;23.802;2023-04-09T00:25:05;100748.31;;;8.26;100.00
55675;BME280;41562;44.330;23.802;2023-04-09T00:27:33;100747.41;;;8.04;100.00
55675;BME280;41562;44.330;23.802;2023-04-09T00:30:01;100747.34;;;7.99;100.00
55675;BME280;41562;44.330;23.802;2023-04-09T00:32:28;100747.75;;;8.07;100.00
55675;BME280;41562;44.330;23.802;2023-04-09T00:34:55;100746.38;;;8.05;100.00
55675;BME280;41562;44.330;23.802;2023-04-09T00:37:22;100755.72;;;7.91;100.00
55675;BME280;41562;44.330;23.802;2023-04-09T00:39:49;100753.63;;;7.93;100.00
55675;BME280;41562;44.330;23.802;2023-04-09T00:42:17;100762.09;;;8.23;100.00
55675;BME280;41562;44.330;23.802;2023-04-09T00:44:45;100767.22;;;8.41;100.00
55675;BME280;41562;44.330;23.802;2023-04-09T00:47:12;100766.09;;;8.37;100.00
55675;BME280;41562;44.330;23.802;2023-04-09T00:49:39;100767.38;;;8.18;100.00
55675;BME280;41562;44.330;23.802;2023-04-09T00:52:06;100768.03;;;8.08;100.00
55675;BME280;41562;44.330;23.802;2023-04-09T00:54:34;100770.84;;;8.19;100.00
55675;BME280;41562;44.330;23.802;2023-04-09T00:57:02;100773.19;;;8.15;100.00
55675;BME280;41562;44.330;23.802;2023-04-09T00:59:29;100766.78;;;8.16;100.00
55675;BME280;41562;44.330;23.802;2023-04-09T01:01:57;100775.13;;;8.20;100.00
55675;BME280;41562;44.330;23.802;2023-04-09T01:04:24;100767.59;;;8.17;100.00
55675;BME280;41562;44.330;23.802;2023-04-09T01:06:58;100772.09;;;7.83;100.00
55675;BME280;41562;44.330;23.802;2023-04-09T01:17:43;100774.47;;;7.96;100.00
55675;BME280;41562;44.330;23.802;2023-04-09T01:20:20;100773.22;;;7.87;100.00
55675;BME280;41562;44.330;23.802;2023-04-09T01:25:43;100777.41;;;7.83;100.00
55675;BME280;41562;44.330;23.802;2023-04-09T01:28:21;100776.25;;;7.79;100.00
55675;BME280;41562;44.330;23.802;2023-04-09T01:30:53;100776.75;;;7.76;100.00
55675;BME280;41562;44.330;23.802;2023-04-09T01:33:23;100776.69;;;7.71;100.00
55675;BME280;41562;44.330;23.802;2023-04-09T01:35:52;100769.72;;;7.70;100.00
55675;BME280;41562;44.330;23.802;2023-04-09T01:38:21;100765.38;;;7.80;100.00
55675;BME280;41562;44.330;23.802;2023-04-09T01:40:49;100770.47;;;7.65;100.00
55675;BME280;41562;44.330;23.802;2023-04-09T01:43:18;100766.50;;;7.67;100.00
55675;BME280;41562;44.330;23.802;2023-04-09T01:45:46;100764.50;;;7.75;100.00
55675;BME280;41562;44.330;23.802;2023-04-09T01:48:14;100764.72;;;7.73;100.00
55675;BME280;41562;44.330;23.802;2023-04-09T01:50:42;100763.06;;;7.55;100.00
55675;BME280;41562;44.330;23.802;2023-04-09T01:53:10;100763.75;;;7.62;100.00
55675;BME280;41562;44.330;23.802;2023-04-09T01:55:37;100771.16;;;7.60;100.00
55675;BME280;41562;44.330;23.802;2023-04-09T01:58:04;100766.78;;;7.54;100.00
55675;BME280;41562;44.330;23.802;2023-04-09T02:00:38;100767.59;;;7.55;100.00
55675;BME280;41562;44.330;23.802;2023-04-09T02:03:25;100757.59;;;7.62;100.00
55675;BME280;41562;44.330;23.802;2023-04-09T02:06:12;100753.69;;;7.64;100.00
55675;BME280;41562;44.330;23.802;2023-04-09T02:08:45;100755.38;;;7.71;100.00
55675;BME280;41562;44.330;23.802;2023-04-09T02:11:14;100753.19;;;7.67;100.00
55675;BME280;41562;44.330;23.802;2023-04-09T02:13:43;100758.19;;;7.64;100.00
55675;BME280;41562;44.330;23.802;2023-04-09T02:16:11;100751.56;;;7.66;100.00
55675;BME280;41562;44.330;23.802;2023-04-09T02:18:39;100756.00;;;7.61;100.00
55675;BME280;41562;44.330;23.802;2023-04-09T02:21:07;100750.34;;;7.57;100.00
55675;BME280;41562;44.330;23.802;2023-04-09T02:23:34;100761.22;;;7.56;100.00
55675;BME280;41562;44.330;23.802;2023-04-09T02:26:01;100749.84;;;7.60;100.00
55675;BME280;41562;44.330;23.802;2023-04-09T02:28:28;100748.63;;;7.51;100.00
55675;BME280;41562;44.330;23.802;2023-04-09T02:30:56;100746.66;;;7.58;100.00
55675;BME280;41562;44.330;23.802;2023-04-09T02:33:23;100739.03;;;7.50;100.00
55675;BME280;41562;44.330;23.802;2023-04-09T02:35:50;100744.28;;;7.45;100.00
55675;BME280;41562;44.330;23.802;2023-04-09T02:38:18;100747.38;;;7.42;100.00
55675;BME280;41562;44.330;23.802;2023-04-09T02:40:45;100752.56;;;7.49;100.00
55675;BME280;41562;44.330;23.802;2023-04-09T02:43:12;100750.72;;;7.49;100.00
55675;BME280;41562;44.330;23.802;2023-04-09T02:45:40;100741.47;;;7.52;100.00
55675;BME280;41562;44.330;23.802;2023-04-09T02:48:08;100748.25;;;7.59;100.00
55675;BME280;41562;44.330;23.802;2023-04-09T02:50:35;100747.88;;;7.39;100.00
55675;BME280;41562;44.330;23.802;2023-04-09T02:53:02;100754.34;;;7.43;100.00
55675;BME280;41562;44.330;23.802;2023-04-09T02:55:29;100755.19;;;8.94;100.00
55675;BME280;41562;44.330;23.802;2023-04-09T02:57:56;100767.94;;;12.89;84.53
55675;BME280;41562;44.330;23.802;2023-04-09T03:00:24;100761.69;;;13.09;82.96
55675;BME280;41562;44.330;23.802;2023-04-09T03:02:51;100761.59;;;12.44;81.93
55675;BME280;41562;44.330;23.802;2023-04-09T03:05:19;100762.34;;;13.50;78.10
55675;BME280;41562;44.330;23.802;2023-04-09T03:07:46;100761.53;;;14.27;79.09
55675;BME280;41562;44.330;23.802;2023-04-09T03:10:14;100749.59;;;14.04;76.17
55675;BME280;41562;44.330;23.802;2023-04-09T03:12:41;100755.00;;;14.38;75.23
55675;BME280;41562;44.330;23.802;2023-04-09T03:15:10;100755.88;;;13.51;77.28
55675;BME280;41562;44.330;23.802;2023-04-09T03:17:37;100757.09;;;13.74;74.62
55675;BME280;41562;44.330;23.802;2023-04-09T03:20:06;100757.44;;;12.93;80.67
55675;BME280;41562;44.330;23.802;2023-04-09T03:22:37;100752.22;;;12.32;79.67
55675;BME280;41562;44.330;23.802;2023-04-09T03:25:05;100746.22;;;10.07;92.30
55675;BME280;41562;44.330;23.802;2023-04-09T03:27:32;100753.94;;;9.23;97.47
55675;BME280;41562;44.330;23.802;2023-04-09T03:29:59;100758.00;;;8.66;100.00
55675;BME280;41562;44.330;23.802;2023-04-09T03:32:27;100750.69;;;8.39;100.00
55675;BME280;41562;44.330;23.802;2023-04-09T03:34:54;100752.19;;;8.19;100.00
55675;BME280;41562;44.330;23.802;2023-04-09T03:37:21;100748.13;;;7.83;100.00
55675;BME280;41562;44.330;23.802;2023-04-09T03:39:54;100747.47;;;7.76;100.00
55675;BME280;41562;44.330;23.802;2023-04-09T03:42:22;100739.13;;;7.55;100.00
55675;BME280;41562;44.330;23.802;2023-04-09T03:44:52;100752.59;;;7.65;100.00
55675;BME280;41562;44.330;23.802;2023-04-09T03:47:19;100758.25;;;7.52;100.00
55675;BME280;41562;44.330;23.802;2023-04-09T03:49:47;100757.16;;;7.53;100.00
55675;BME280;41562;44.330;23.802;2023-04-09T03:52:15;100754.38;;;7.60;100.00
55675;BME280;41562;44.330;23.802;2023-04-09T03:54:42;100753.19;;;7.67;100.00
55675;BME280;41562;44.330;23.802;2023-04-09T03:57:10;100759.03;;;7.53;100.00
55675;BME280;41562;44.330;23.802;2023-04-09T03:59:39;100766.69;;;7.49;100.00
55675;BME280;41562;44.330;23.802;2023-04-09T04:02:07;100765.44;;;7.40;100.00
55675;BME280;41562;44.330;23.802;2023-04-09T04:04:36;100770.34;;;7.32;100.00
55675;BME280;41562;44.330;23.802;2023-04-09T04:07:04;100770.00;;;7.28;100.00
55675;BME280;41562;44.330;23.802;2023-04-09T04:09:32;100774.13;;;11.63;95.50
55675;BME280;41562;44.330;23.802;2023-04-09T04:12:00;100770.69;;;10.21;92.34
55675;BME280;41562;44.330;23.802;2023-04-09T04:14:37;100777.03;;;8.91;99.28
55675;BME280;41562;44.330;23.802;2023-04-09T04:17:08;100777.53;;;8.04;100.00
55675;BME280;41562;44.330;23.802;2023-04-09T04:19:36;100785.78;;;7.75;100.00
55675;BME280;41562;44.330;23.802;2023-04-09T04:22:03;100779.75;;;7.79;100.00
55675;BME280;41562;44.330;23.802;2023-04-09T04:24:30;100778.94;;;7.50;100.00
55675;BME280;41562;44.330;23.802;2023-04-09T04:26:58;100783.03;;;7.70;100.00
55675;BME280;41562;44.330;23.802;2023-04-09T04:29:27;100789.09;;;7.65;100.00
55675;BME280;41562;44.330;23.802;2023-04-09T04:31:55;100792.06;;;7.68;100.00
55675;BME280;41562;44.330;23.802;2023-04-09T04:34:22;100795.78;;;7.39;100.00
55675;BME280;41562;44.330;23.802;2023-04-09T04:36:49;100795.00;;;7.55;100.00
55675;BME280;41562;44.330;23.802;2023-04-09T04:39:19;100801.28;;;7.49;100.00
55675;BME280;41562;44.330;23.802;2023-04-09T04:41:47;100791.91;;;7.47;100.00
55675;BME280;41562;44.330;23.802;2023-04-09T04:44:14;100798.97;;;7.41;100.00
55675;BME280;41562;44.330;23.802;2023-04-09T04:46:42;100802.81;;;7.45;100.00
55675;BME280;41562;44.330;23.802;2023-04-09T04:49:09;100798.91;;;7.24;100.00
55675;BME280;41562;44.330;23.802;2023-04-09T04:51:36;100809.88;;;7.28;100.00
55675;BME280;41562;44.330;23.802;2023-04-09T04:54:03;100811.03;;;7.32;100.00
55675;BME280;41562;44.330;23.802;2023-04-09T04:56:31;100809.06;;;7.27;100.00
55675;BME280;41562;44.330;23.802;2023-04-09T04:58:59;100805.38;;;7.28;100.00
55675;BME280;41562;44.330;23.802;2023-04-09T05:01:26;100808.25;;;7.39;100.00
55675;BME280;41562;44.330;23.802;2023-04-09T05:03:54;100821.00;;;7.25;100.00
55675;BME280;41562;44.330;23.802;2023-04-09T05:06:22;100816.28;;;7.15;100.00
55675;BME280;41562;44.330;23.802;2023-04-09T05:08:52;100815.59;;;7.20;100.00
55675;BME280;41562;44.330;23.802;2023-04-09T05:11:35;100825.50;;;7.24;100.00
55675;BME280;41562;44.330;23.802;2023-04-09T05:14:02;100816.81;;;7.29;100.00
55675;BME280;41562;44.330;23.802;2023-04-09T05:16:29;100826.91;;;7.15;100.00
55675;BME280;41562;44.330;23.802;2023-04-09T05:18:57;100815.69;;;7.25;100.00
55675;BME280;41562;44.330;23.802;2023-04-09T05:21:24;100824.81;;;7.29;100.00
55675;BME280;41562;44.330;23.802;2023-04-09T05:23:51;100829.56;;;7.27;100.00
55675;BME280;41562;44.330;23.802;2023-04-09T05:26:18;100834.22;;;7.20;100.00
55675;BME280;41562;44.330;23.802;2023-04-09T05:28:46;100836.28;;;7.18;100.00
55675;BME280;41562;44.330;23.802;2023-04-09T05:31:13;100828.88;;;7.20;100.00
55675;BME280;41562;44.330;23.802;2023-04-09T05:33:41;100838.72;;;7.19;100.00
55675;BME280;41562;44.330;23.802;2023-04-09T05:36:14;100840.16;;;8.07;100.00
55675;BME280;41562;44.330;23.802;2023-04-09T05:38:42;100839.97;;;8.75;100.00
55675;BME280;41562;44.330;23.802;2023-04-09T05:41:12;100847.09;;;8.08;100.00
55675;BME280;41562;44.330;23.802;2023-04-09T05:43:40;100845.38;;;7.74;100.00
55675;BME280;41562;44.330;23.802;2023-04-09T05:46:07;100846.97;;;7.58;100.00
55675;BME280;41562;44.330;23.802;2023-04-09T05:48:34;100844.44;;;7.51;100.00
55675;BME280;41562;44.330;23.802;2023-04-09T05:51:02;100846.88;;;7.41;100.00
55675;BME280;41562;44.330;23.802;2023-04-09T05:53:30;100842.06;;;8.73;100.00
55675;BME280;41562;44.330;23.802;2023-04-09T05:55:57;100847.34;;;9.45;100.00
55675;BME280;41562;44.330;23.802;2023-04-09T05:58:24;100839.28;;;8.46;100.00
55675;BME280;41562;44.330;23.802;2023-04-09T06:00:54;100833.28;;;8.11;100.00
55675;BME280;41562;44.330;23.802;2023-04-09T06:03:22;100834.59;;;7.80;100.00
55675;BME280;41562;44.330;23.802;2023-04-09T06:05:49;100835.78;;;7.73;100.00
55675;BME280;41562;44.330;23.802;2023-04-09T06:08:17;100839.06;;;7.63;100.00
55675;BME280;41562;44.330;23.802;2023-04-09T06:10:44;100834.47;;;7.58;100.00
55675;BME280;41562;44.330;23.802;2023-04-09T06:13:11;100827.63;;;7.62;100.00
55675;BME280;41562;44.330;23.802;2023-04-09T06:15:38;100831.25;;;7.45;100.00
55675;BME280;41562;44.330;23.802;2023-04-09T06:18:06;100832.59;;;7.59;100.00
55675;BME280;41562;44.330;23.802;2023-04-09T06:20:33;100828.44;;;7.63;100.00
55675;BME280;41562;44.330;23.802;2023-04-09T06:23:00;100825.53;;;7.64;100.00
55675;BME280;41562;44.330;23.802;2023-04-09T06:25:28;100831.81;;;7.58;100.00
55675;BME280;41562;44.330;23.802;2023-04-09T06:27:55;100822.59;;;7.78;100.00
55675;BME280;41562;44.330;23.802;2023-04-09T06:30:23;100825.41;;;7.59;100.00
55675;BME280;41562;44.330;23.802;2023-04-09T06:32:50;100827.97;;;7.54;100.00
55675;BME280;41562;44.330;23.802;2023-04-09T06:35:21;100825.75;;;7.63;100.00
55675;BME280;41562;44.330;23.802;2023-04-09T06:37:49;100833.03;;;7.67;100.00
55675;BME280;41562;44.330;23.802;2023-04-09T06:40:19;100832.78;;;7.69;100.00
55675;BME280;41562;44.330;23.802;2023-04-09T06:42:49;100833.88;;;7.56;100.00
55675;BME280;41562;44.330;23.802;2023-04-09T06:45:16;100836.63;;;7.61;100.00
55675;BME280;41562;44.330;23.802;2023-04-09T06:47:43;100833.59;;;7.70;100.00
55675;BME280;41562;44.330;23.802;2023-04-09T06:50:11;100831.22;;;7.56;100.00
55675;BME280;41562;44.330;23.802;2023-04-09T06:52:38;100837.81;;;7.54;100.00
55675;BME280;41562;44.330;23.802;2023-04-09T06:55:05;100836.63;;;7.61;100.00
55675;BME280;41562;44.330;23.802;2023-04-09T06:57:33;100835.63;;;7.79;100.00
55675;BME280;41562;44.330;23.802;2023-04-09T07:00:00;100828.28;;;7.70;100.00
55675;BME280;41562;44.330;23.802;2023-04-09T07:02:27;100841.69;;;7.75;100.00
55675;BME280;41562;44.330;23.802;2023-04-09T07:04:54;100831.19;;;7.68;100.00
55675;BME280;41562;44.330;23.802;2023-04-09T07:07:23;100838.34;;;7.67;100.00
55675;BME280;41562;44.330;23.802;2023-04-09T07:09:52;100836.81;;;7.72;100.00
55675;BME280;41562;44.330;23.802;2023-04-09T07:12:30;100833.59;;;7.70;100.00
55675;BME280;41562;44.330;23.802;2023-04-09T07:15:04;100832.84;;;7.86;100.00
55675;BME280;41562;44.330;23.802;2023-04-09T07:17:32;100835.59;;;7.91;100.00
55675;BME280;41562;44.330;23.802;2023-04-09T07:20:00;100838.81;;;7.93;100.00
55675;BME280;41562;44.330;23.802;2023-04-09T07:22:27;100830.94;;;7.98;100.00
55675;BME280;41562;44.330;23.802;2023-04-09T07:24:55;100833.22;;;8.06;100.00
55675;BME280;41562;44.330;23.802;2023-04-09T07:27:23;100836.91;;;8.05;100.00
55675;BME280;41562;44.330;23.802;2023-04-09T07:29:56;100830.63;;;8.11;100.00
55675;BME280;41562;44.330;23.802;2023-04-09T07:32:25;100830.63;;;8.11;100.00
55675;BME280;41562;44.330;23.802;2023-04-09T07:34:55;100838.91;;;7.98;100.00
55675;BME280;41562;44.330;23.802;2023-04-09T07:37:23;100832.75;;;8.09;100.00
55675;BME280;41562;44.330;23.802;2023-04-09T07:39:50;100841.78;;;8.08;100.00
55675;BME280;41562;44.330;23.802;2023-04-09T07:42:17;100849.03;;;8.13;100.00
55675;BME280;41562;44.330;23.802;2023-04-09T07:44:45;100847.00;;;8.03;100.00
55675;BME280;41562;44.330;23.802;2023-04-09T07:47:12;100851.38;;;8.09;100.00
55675;BME280;41562;44.330;23.802;2023-04-09T07:49:40;100846.53;;;8.06;100.00
55675;BME280;41562;44.330;23.802;2023-04-09T07:52:08;100852.66;;;8.06;100.00
55675;BME280;41562;44.330;23.802;2023-04-09T07:54:35;100851.28;;;8.04;100.00
55675;BME280;41562;44.330;23.802;2023-04-09T07:57:02;100851.38;;;8.09;100.00
55675;BME280;41562;44.330;23.802;2023-04-09T07:59:33;100855.09;;;8.08;100.00
55675;BME280;41562;44.330;23.802;2023-04-09T08:02:03;100848.66;;;8.21;100.00
55675;BME280;41562;44.330;23.802;2023-04-09T08:04:44;100852.91;;;8.05;100.00
55675;BME280;41562;44.330;23.802;2023-04-09T08:07:11;100854.94;;;8.15;100.00
55675;BME280;41562;44.330;23.802;2023-04-09T08:09:39;100855.19;;;8.13;100.00
55675;BME280;41562;44.330;23.802;2023-04-09T08:12:06;100856.06;;;8.19;100.00
55675;BME280;41562;44.330;23.802;2023-04-09T08:14:33;100849.56;;;8.26;100.00
55675;BME280;41562;44.330;23.802;2023-04-09T08:17:00;100850.50;;;8.20;100.00
55675;BME280;41562;44.330;23.802;2023-04-09T08:19:28;100863.41;;;8.40;100.00
55675;BME280;41562;44.330;23.802;2023-04-09T08:21:55;100856.22;;;8.57;100.00
55675;BME280;41562;44.330;23.802;2023-04-09T08:24:22;100857.75;;;8.70;100.00
55675;BME280;41562;44.330;23.802;2023-04-09T08:26:49;100854.50;;;8.68;100.00
55675;BME280;41562;44.330;23.802;2023-04-09T08:29:17;100853.78;;;8.89;100.00
55675;BME280;41562;44.330;23.802;2023-04-09T08:31:51;100855.78;;;8.99;100.00
55675;BME280;41562;44.330;23.802;2023-04-09T08:34:22;100863.59;;;9.05;100.00
55675;BME280;41562;44.330;23.802;2023-04-09T08:36:49;100854.88;;;9.10;100.00
55675;BME280;41562;44.330;23.802;2023-04-09T08:39:16;100857.56;;;9.10;100.00
55675;BME280;41562;44.330;23.802;2023-04-09T08:41:44;100857.56;;;9.10;100.00
55675;BME280;41562;44.330;23.802;2023-04-09T08:44:11;100860.41;;;9.03;100.00
55675;BME280;41562;44.330;23.802;2023-04-09T08:46:39;100855.13;;;9.95;100.00
55675;BME280;41562;44.330;23.802;2023-04-09T08:49:07;100856.47;;;9.71;100.00
55675;BME280;41562;44.330;23.802;2023-04-09T08:51:35;100855.84;;;9.64;100.00
55675;BME280;41562;44.330;23.802;2023-04-09T08:54:02;100856.09;;;9.62;100.00
55675;BME280;41562;44.330;23.802;2023-04-09T08:56:31;100855.47;;;9.55;100.00
55675;BME280;41562;44.330;23.802;2023-04-09T08:58:58;100851.25;;;9.59;100.00
55675;BME280;41562;44.330;23.802;2023-04-09T09:01:29;100852.88;;;9.60;100.00
55675;BME280;41562;44.330;23.802;2023-04-09T09:04:00;100852.88;;;9.60;100.00
55675;BME280;41562;44.330;23.802;2023-04-09T09:06:29;100853.75;;;9.66;100.00
55675;BME280;41562;44.330;23.802;2023-04-09T09:09:10;100853.22;;;9.69;100.00
55675;BME280;41562;44.330;23.802;2023-04-09T09:11:48;100857.56;;;9.75;100.00
55675;BME280;41562;44.330;23.802;2023-04-09T09:14:17;100858.63;;;9.74;100.00
55675;BME280;41562;44.330;23.802;2023-04-09T09:17:05;100856.75;;;9.75;100.00
55675;BME280;41562;44.330;23.802;2023-04-09T09:19:32;100855.06;;;9.90;100.00
55675;BME280;41562;44.330;23.802;2023-04-09T09:22:03;100861.66;;;9.83;100.00
55675;BME280;41562;44.330;23.802;2023-04-09T09:24:31;100855.03;;;9.63;100.00
55675;BME280;41562;44.330;23.802;2023-04-09T09:26:59;100850.56;;;9.69;100.00
55675;BME280;41562;44.330;23.802;2023-04-09T09:29:26;100846.88;;;9.75;100.00
55675;BME280;41562;44.330;23.802;2023-04-09T09:31:54;100847.41;;;9.72;100.00
55675;BME280;41562;44.330;23.802;2023-04-09T09:34:23;100852.16;;;9.70;100.00
55675;BME280;41562;44.330;23.802;2023-04-09T09:36:51;100850.78;;;9.89;100.00
55675;BME280;41562;44.330;23.802;2023-04-09T09:39:18;100843.66;;;10.00;100.00
55675;BME280;41562;44.330;23.802;2023-04-09T09:41:45;100837.94;;;10.13;100.00
55675;BME280;41562;44.330;23.802;2023-04-09T09:44:30;100845.22;;;10.18;100.00
55675;BME280;41562;44.330;23.802;2023-04-09T09:46:58;100836.81;;;10.09;100.00
55675;BME280;41562;44.330;23.802;2023-04-09T09:49:25;100837.28;;;10.28;100.00
55675;BME280;41562;44.330;23.802;2023-04-09T09:51:56;100839.44;;;10.31;100.00
55675;BME280;41562;44.330;23.802;2023-04-09T09:54:26;100830.16;;;10.38;100.00
55675;BME280;41562;44.330;23.802;2023-04-09T09:56:56;100831.22;;;10.37;100.00
55675;BME280;41562;44.330;23.802;2023-04-09T09:59:31;100836.28;;;10.71;100.00
55675;BME280;41562;44.330;23.802;2023-04-09T10:02:03;100831.91;;;10.92;100.00
55675;BME280;41562;44.330;23.802;2023-04-09T10:04:33;100826.13;;;11.10;100.00
55675;BME280;41562;44.330;23.802;2023-04-09T10:07:03;100819.34;;;11.59;100.00
55675;BME280;41562;44.330;23.802;2023-04-09T10:09:36;100818.13;;;11.82;100.00
55675;BME280;41562;44.330;23.802;2023-04-09T10:12:06;100818.97;;;12.13;100.00
55675;BME280;41562;44.330;23.802;2023-04-09T10:14:33;100822.19;;;12.15;100.00
55675;BME280;41562;44.330;23.802;2023-04-09T10:17:01;100811.47;;;12.25;100.00
55675;BME280;41562;44.330;23.802;2023-04-09T10:19:30;100820.59;;;12.24;100.00
55675;BME280;41562;44.330;23.802;2023-04-09T10:22:03;100810.13;;;12.28;100.00
55675;BME280;41562;44.330;23.802;2023-04-09T10:24:32;100806.66;;;12.32;100.00
55675;BME280;41562;44.330;23.802;2023-04-09T10:27:11;100805.56;;;12.43;100.00
55675;BME280;41562;44.330;23.802;2023-04-09T10:29:47;100809.31;;;12.68;100.00
55675;BME280;41562;44.330;23.802;2023-04-09T10:32:19;100796.97;;;12.67;100.00
55675;BME280;41562;44.330;23.802;2023-04-09T10:34:48;100792.91;;;12.84;100.00
55675;BME280;41562;44.330;23.802;2023-04-09T10:37:20;100794.50;;;12.96;100.00
55675;BME280;41562;44.330;23.802;2023-04-09T10:39:49;100795.22;;;13.26;100.00
55675;BME280;41562;44.330;23.802;2023-04-09T10:42:28;100788.81;;;13.17;100.00
55675;BME280;41562;44.330;23.802;2023-04-09T10:45:10;100796.25;;;13.36;99.74
55675;BME280;41562;44.330;23.802;2023-04-09T10:47:39;100790.00;;;13.50;100.00
55675;BME280;41562;44.330;23.802;2023-04-09T10:52:45;100782.38;;;13.08;100.00
55675;BME280;41562;44.330;23.802;2023-04-09T10:55:35;100780.28;;;12.95;100.00
55675;BME280;41562;44.330;23.802;2023-04-09T10:58:12;100772.88;;;13.36;99.81
55675;BME280;41562;44.330;23.802;2023-04-09T11:00:44;100765.28;;;13.48;100.00
55675;BME280;41562;44.330;23.802;2023-04-09T11:03:19;100764.84;;;13.80;100.00
55675;BME280;41562;44.330;23.802;2023-04-09T11:06:10;100774.19;;;13.44;96.77
55675;BME280;41562;44.330;23.802;2023-04-09T11:08:37;100767.84;;;13.24;100.00
55675;BME280;41562;44.330;23.802;2023-04-09T11:11:05;100763.53;;;13.23;97.62
55675;BME280;41562;44.330;23.802;2023-04-09T11:13:32;100760.13;;;13.62;100.00
55675;BME280;41562;44.330;23.802;2023-04-09T11:15:59;100765.69;;;13.76;99.91
55675;BME280;41562;44.330;23.802;2023-04-09T11:18:28;100766.25;;;13.67;98.75
55675;BME280;41562;44.330;23.802;2023-04-09T11:20:57;100774.13;;;15.13;91.01
55675;BME280;41562;44.330;23.802;2023-04-09T11:23:25;100764.00;;;15.24;88.63
55675;BME280;41562;44.330;23.802;2023-04-09T11:25:53;100757.56;;;14.20;90.43
55675;BME280;41562;44.330;23.802;2023-04-09T11:28:22;100750.63;;;14.14;90.80
55675;BME280;41562;44.330;23.802;2023-04-09T11:30:50;100753.97;;;15.11;92.66
55675;BME280;41562;44.330;23.802;2023-04-09T11:33:19;100755.09;;;15.47;87.64
55675;BME280;41562;44.330;23.802;2023-04-09T11:35:47;100753.44;;;15.89;92.61
55675;BME280;41562;44.330;23.802;2023-04-09T11:38:15;100750.38;;;16.74;91.65
55675;BME280;41562;44.330;23.802;2023-04-09T11:40:43;100751.44;;;17.27;94.13
55675;BME280;41562;44.330;23.802;2023-04-09T11:43:11;100749.09;;;17.12;93.26
55675;BME280;41562;44.330;23.802;2023-04-09T11:45:38;100746.38;;;17.26;87.76
55675;BME280;41562;44.330;23.802;2023-04-09T11:48:06;100748.84;;;17.36;88.06
55675;BME280;41562;44.330;23.802;2023-04-09T11:50:35;100751.81;;;17.62;84.45
55675;BME280;41562;44.330;23.802;2023-04-09T11:53:21;100748.81;;;17.63;86.02
55675;BME280;41562;44.330;23.802;2023-04-09T11:55:53;100743.91;;;17.88;92.37
55675;BME280;41562;44.330;23.802;2023-04-09T11:58:24;100742.22;;;18.23;91.41
55675;BME280;41562;44.330;23.802;2023-04-09T12:00:57;100736.47;;;17.93;85.94
55675;BME280;41562;44.330;23.802;2023-04-09T12:03:29;100743.44;;;17.36;90.05
55675;BME280;41562;44.330;23.802;2023-04-09T12:06:02;100740.03;;;17.44;87.14
55675;BME280;41562;44.330;23.802;2023-04-09T12:08:30;100737.25;;;15.89;84.60
55675;BME280;41562;44.330;23.802;2023-04-09T12:11:10;100728.63;;;15.54;86.12
55675;BME280;41562;44.330;23.802;2023-04-09T12:13:40;100724.72;;;15.23;88.61
55675;BME280;41562;44.330;23.802;2023-04-09T12:16:08;100726.41;;;14.71;85.68
55675;BME280;41562;44.330;23.802;2023-04-09T12:18:36;100726.34;;;14.76;89.42
55675;BME280;41562;44.330;23.802;2023-04-09T12:21:03;100727.19;;;14.96;88.56
55675;BME280;41562;44.330;23.802;2023-04-09T12:23:31;100730.91;;;15.00;89.15
55675;BME280;41562;44.330;23.802;2023-04-09T12:25:59;100725.06;;;14.93;89.17
55675;BME280;41562;44.330;23.802;2023-04-09T12:28:27;100727.16;;;14.53;84.29
55675;BME280;41562;44.330;23.802;2023-04-09T12:30:54;100720.31;;;14.61;87.38
55675;BME280;41562;44.330;23.802;2023-04-09T12:33:22;100722.50;;;14.59;87.63
55675;BME280;41562;44.330;23.802;2023-04-09T12:35:49;100727.75;;;14.45;88.16
55675;BME280;41562;44.330;23.802;2023-04-09T12:38:16;100726.13;;;15.58;84.84
55675;BME280;41562;44.330;23.802;2023-04-09T12:40:44;100724.19;;;16.28;81.57
55675;BME280;41562;44.330;23.802;2023-04-09T12:43:11;100721.66;;;16.78;80.18
55675;BME280;41562;44.330;23.802;2023-04-09T12:45:38;100724.66;;;16.90;76.39
55675;BME280;41562;44.330;23.802;2023-04-09T12:48:06;100723.06;;;16.16;77.72
55675;BME280;41562;44.330;23.802;2023-04-09T12:50:33;100719.72;;;15.73;78.48
55675;BME280;41562;44.330;23.802;2023-04-09T12:53:00;100716.31;;;15.24;82.43
55675;BME280;41562;44.330;23.802;2023-04-09T12:55:28;100716.94;;;14.98;81.53
55675;BME280;41562;44.330;23.802;2023-04-09T12:57:55;100705.31;;;14.55;83.74
55675;BME280;41562;44.330;23.802;2023-04-09T13:00:22;100710.41;;;14.56;83.93